Time;durP1;ratioP1;P1;durP2;ratioP2;P2;SDS_P1;SDS_P2;PMS_P1;PMS_P2;Temp;Humidity;BMP_temperature;BMP_pressure;BME280_temperature;BME280_humidity;BME280_pressure;Samples;Min_cycle;Max_cycle;Signal;HPM_P1;HPM_P2
2022/01/30 00:01:21;;;;;;;7.23;5.37;;;;;;;1.23;55.73;94957.03;5028052;28;20219;-72
2022/01/30 00:03:47;;;;;;;5.70;5.10;;;;;;;1.05;56.48;94940.56;5026966;28;20184;-72
2022/01/30 00:06:12;;;;;;;9.93;4.73;;;;;;;1.18;55.95;94948.88;5027335;28;20184;-72
2022/01/30 00:08:38;;;;;;;4.87;3.87;;;;;;;1.06;55.53;94955.06;5027407;28;20203;-71
2022/01/30 00:11:12;;;;;;;10.03;6.17;;;;;;;1.65;54.23;94956.09;5009723;28;20188;-72
2022/01/30 00:13:37;;;;;;;5.35;4.00;;;;;;;1.07;55.79;94946.41;5026640;28;20231;-72
2022/01/30 00:16:06;;;;;;;3.43;2.83;;;;;;;1.22;54.80;94945.09;5027602;28;20205;-72
2022/01/30 00:23:34;;;;;;;5.40;4.70;;;;;;;1.95;52.76;94937.97;5027074;28;20160;-72
2022/01/30 00:26:04;;;;;;;3.22;2.25;;;;;;;1.51;53.88;94932.31;5026370;28;20168;-72
2022/01/30 00:28:32;;;;;;;7.35;5.03;;;;;;;1.77;53.04;94923.28;5026833;28;20164;-72
2022/01/30 00:30:57;;;;;;;4.40;3.50;;;;;;;1.24;54.93;94917.44;5026742;28;20240;-73
2022/01/30 00:33:23;;;;;;;3.63;3.33;;;;;;;1.12;54.71;94923.59;5026919;28;20172;-72
2022/01/30 00:35:48;;;;;;;6.53;5.90;;;;;;;1.65;53.60;94912.25;5026693;28;20208;-72
2022/01/30 00:38:19;;;;;;;9.37;5.83;;;;;;;1.98;53.26;94918.81;5028962;28;20183;-72
2022/01/30 00:40:46;;;;;;;6.93;6.20;;;;;;;1.80;53.72;94917.84;5045925;28;20159;-71
2022/01/30 00:43:12;;;;;;;7.65;5.13;;;;;;;1.99;52.21;94917.84;5030239;28;20189;-72
2022/01/30 00:45:38;;;;;;;7.15;6.45;;;;;;;1.94;53.29;94914.88;5026126;28;20181;-72
2022/01/30 00:48:04;;;;;;;5.70;4.77;;;;;;;1.88;53.31;94920.59;5026018;28;20198;-71
2022/01/30 00:50:30;;;;;;;10.60;7.27;;;;;;;1.90;53.25;94919.50;5008305;28;20242;-72
2022/01/30 00:52:56;;;;;;;8.50;6.90;;;;;;;1.88;52.82;94916.22;5025949;28;20477;-71
2022/01/30 00:55:24;;;;;;;10.00;6.67;;;;;;;1.70;53.76;94905.75;5025945;28;20200;-72
2022/01/30 00:57:50;;;;;;;9.52;6.25;;;;;;;1.71;53.44;94902.22;5025872;28;20847;-72
2022/01/30 01:00:16;;;;;;;10.80;6.53;;;;;;;1.68;52.59;94894.75;5025439;28;20218;-72
2022/01/30 01:02:42;;;;;;;7.20;6.47;;;;;;;1.89;52.93;94892.03;5026027;28;20174;-71
2022/01/30 01:05:08;;;;;;;11.15;6.80;;;;;;;1.56;53.86;94885.50;5025952;28;20429;-72
2022/01/30 01:07:35;;;;;;;6.80;5.87;;;;;;;1.28;54.59;94887.88;5025891;28;20176;-72
2022/01/30 01:10:16;;;;;;;7.65;6.68;;;;;;;1.20;54.24;94879.97;5008195;28;20671;-72
2022/01/30 01:23:36;;;;;;;11.10;5.65;;;;;;;0.88;54.99;94873.22;5025837;28;20156;-71
2022/01/30 01:26:02;;;;;;;8.20;5.13;;;;;;;1.30;54.72;94857.63;5007623;28;20172;-71
2022/01/30 01:28:28;;;;;;;8.07;6.73;;;;;;;1.71;53.24;94855.78;5007680;28;20172;-72
2022/01/30 01:30:54;;;;;;;8.73;5.60;;;;;;;1.51;53.55;94846.41;5007855;28;20251;-71
2022/01/30 01:33:21;;;;;;;7.50;5.80;;;;;;;1.77;52.86;94843.31;5025278;28;20176;-71
2022/01/30 01:35:47;;;;;;;7.93;6.28;;;;;;;1.99;51.83;94832.69;5025313;28;20553;-71
2022/01/30 01:38:14;;;;;;;9.33;6.00;;;;;;;2.10;51.95;94819.66;5025312;28;20184;-72
2022/01/30 01:40:41;;;;;;;8.15;6.00;;;;;;;1.93;52.76;94820.34;5025524;28;20426;-71
2022/01/30 01:43:07;;;;;;;9.07;6.00;;;;;;;1.43;53.62;94812.75;5025330;28;20184;-72
2022/01/30 01:45:39;;;;;;;9.77;6.43;;;;;;;1.72;52.85;94810.97;5025629;28;20176;-72
2022/01/30 01:48:11;;;;;;;7.60;6.65;;;;;;;1.86;52.37;94806.34;5007751;28;20434;-71
2022/01/30 01:50:39;;;;;;;11.13;6.60;;;;;;;1.78;52.59;94808.81;5025875;28;20181;-71
2022/01/30 01:53:10;;;;;;;8.90;5.90;;;;;;;1.35;53.33;94809.06;5007806;28;20267;-71
2022/01/30 01:55:37;;;;;;;11.98;7.55;;;;;;;1.28;54.06;94815.69;5007639;28;20672;-72
2022/01/30 01:58:04;;;;;;;8.43;6.13;;;;;;;0.83;54.90;94805.81;5007637;28;20180;-71
2022/01/30 02:00:30;;;;;;;11.75;8.77;;;;;;;0.96;54.77;94806.41;5025612;28;20247;-72
2022/01/30 02:02:55;;;;;;;6.83;5.10;;;;;;;0.71;54.39;94806.88;5025233;28;20172;-71
2022/01/30 02:05:27;;;;;;;18.30;10.30;;;;;;;1.08;54.33;94799.41;5025551;28;20251;-71
2022/01/30 02:10:31;;;;;;;9.13;6.65;;;;;;;1.73;51.83;94789.41;5025946;28;20246;-71
2022/01/30 02:13:10;;;;;;;8.93;6.45;;;;;;;1.40;52.87;94788.03;5011546;28;20173;-71
2022/01/30 02:24:19;;;;;;;7.03;6.32;;;;;;;1.41;52.88;94801.75;5028541;28;20250;-71
2022/01/30 02:26:46;;;;;;;11.75;7.97;;;;;;;0.57;55.04;94811.41;5028713;28;20236;-72
2022/01/30 02:29:13;;;;;;;17.10;7.97;;;;;;;0.65;55.45;94807.41;5028573;28;20204;-72
2022/01/30 02:31:40;;;;;;;10.60;8.25;;;;;;;0.59;55.72;94808.72;5028653;28;20176;-71
2022/01/30 02:34:07;;;;;;;14.00;6.43;;;;;;;0.58;55.49;94789.06;5029002;28;20207;-72
2022/01/30 02:36:32;;;;;;;7.72;7.03;;;;;;;1.05;54.54;94775.66;5009960;28;20203;-71
2022/01/30 02:39:00;;;;;;;11.37;6.90;;;;;;;0.39;55.69;94779.50;5009720;28;20193;-73
2022/01/30 02:41:25;;;;;;;12.07;7.65;;;;;;;1.08;54.73;94765.06;5009209;28;20165;-72
2022/01/30 02:44:12;;;;;;;9.93;6.20;;;;;;;1.01;54.46;94762.22;5009987;28;20216;-72
2022/01/30 02:46:43;;;;;;;9.75;8.70;;;;;;;0.96;54.10;94749.72;4992262;28;20257;-72
2022/01/30 02:52:04;;;;;;;10.38;8.40;;;;;;;0.55;55.38;94738.66;4998308;28;20203;-71
2022/01/30 02:54:30;;;;;;;11.82;9.60;;;;;;;0.27;56.20;94741.94;5008696;28;20189;-71
2022/01/30 02:56:57;;;;;;;11.77;8.82;;;;;;;0.71;55.67;94738.16;5008549;28;20577;-70
2022/01/30 02:59:23;;;;;;;11.60;8.88;;;;;;;1.17;53.99;94743.66;5008579;28;20239;-71
2022/01/30 03:01:49;;;;;;;15.73;9.57;;;;;;;1.09;54.50;94746.09;5008568;28;20260;-71
2022/01/30 03:04:16;;;;;;;8.68;7.53;;;;;;;1.17;54.75;94741.88;5008505;28;20220;-71
2022/01/30 03:06:42;;;;;;;10.40;8.43;;;;;;;1.31;54.00;94737.28;4990816;28;20169;-71
2022/01/30 03:09:08;;;;;;;11.05;7.55;;;;;;;1.56;53.18;94735.94;5008554;28;20197;-71
2022/01/30 03:11:34;;;;;;;8.80;7.28;;;;;;;1.19;53.77;94734.03;5008604;28;20180;-71
2022/01/30 03:14:01;;;;;;;9.90;8.40;;;;;;;1.11;54.69;94736.47;5008795;28;20200;-70
2022/01/30 03:16:26;;;;;;;14.73;6.22;;;;;;;0.71;54.82;94734.75;5009127;28;20201;-71
2022/01/30 03:18:52;;;;;;;8.97;7.57;;;;;;;0.68;55.74;94735.03;4991488;28;20216;-71
2022/01/30 03:21:18;;;;;;;14.00;8.10;;;;;;;0.68;55.81;94742.75;5008395;28;20181;-70
2022/01/30 03:23:43;;;;;;;8.67;7.83;;;;;;;1.07;55.05;94748.00;5017610;28;20771;-71
2022/01/30 03:26:10;;;;;;;14.00;8.57;;;;;;;1.34;53.40;94737.81;5027537;28;20212;-71
2022/01/30 03:28:38;;;;;;;10.02;6.80;;;;;;;0.80;55.06;94744.28;5027561;28;20211;-71
2022/01/30 03:31:06;;;;;;;11.50;6.90;;;;;;;0.90;54.77;94739.94;5027981;28;20172;-70
2022/01/30 03:33:32;;;;;;;10.02;7.85;;;;;;;0.93;54.42;94744.00;5028564;28;20172;-71
2022/01/30 03:35:57;;;;;;;8.73;6.90;;;;;;;0.99;54.37;94753.81;5028426;28;20236;-70
2022/01/30 03:38:24;;;;;;;7.30;6.00;;;;;;;0.10;56.79;94749.31;5011069;28;20182;-72
2022/01/30 03:40:49;;;;;;;9.75;7.70;;;;;;;0.25;56.56;94749.78;5011194;28;20558;-71
2022/01/30 03:43:16;;;;;;;11.07;8.47;;;;;;;0.02;56.83;94756.00;5028211;28;20234;-72
2022/01/30 03:45:42;;;;;;;10.13;7.30;;;;;;;-0.01;57.98;94757.09;5027871;28;20466;-72
2022/01/30 03:48:08;;;;;;;3.10;2.83;;;;;;;-0.18;56.67;94757.66;5027798;28;20172;-72
2022/01/30 03:50:34;;;;;;;8.07;6.50;;;;;;;-0.58;58.04;94745.47;5028514;28;20214;-74
2022/01/30 03:53:00;;;;;;;10.85;7.70;;;;;;;-0.17;57.48;94754.97;5028334;28;20176;-72
2022/01/30 03:55:26;;;;;;;13.13;9.30;;;;;;;0.01;56.61;94754.41;5009449;28;20271;-71
2022/01/30 03:57:51;;;;;;;12.17;7.70;;;;;;;0.49;56.44;94740.91;5009469;28;20180;-72
2022/01/30 04:00:17;;;;;;;11.23;9.50;;;;;;;0.13;55.80;94730.22;5027119;28;20194;-72
2022/01/30 04:02:43;;;;;;;13.70;9.53;;;;;;;0.38;55.80;94729.78;5026930;28;20270;-71
2022/01/30 04:05:09;;;;;;;11.73;9.13;;;;;;;0.95;54.25;94724.91;5027078;28;20438;-72
2022/01/30 04:07:35;;;;;;;11.90;9.00;;;;;;;0.31;55.64;94715.81;5026973;28;20411;-71
2022/01/30 04:10:02;;;;;;;12.10;8.70;;;;;;;0.53;55.29;94717.38;5026929;28;20419;-71
2022/01/30 04:12:27;;;;;;;7.50;5.60;;;;;;;0.54;55.08;94710.47;5027240;28;20204;-72
2022/01/30 04:14:53;;;;;;;9.33;7.13;;;;;;;0.16;55.90;94720.47;5028032;28;20199;-71
2022/01/30 04:17:20;;;;;;;12.87;8.90;;;;;;;0.34;56.18;94712.16;5009530;28;20204;-71
2022/01/30 04:19:46;;;;;;;13.10;8.07;;;;;;;0.60;55.22;94701.41;5027144;28;20419;-71
2022/01/30 04:22:12;;;;;;;9.32;8.30;;;;;;;0.19;55.67;94696.28;5027198;28;20184;-71
2022/01/30 04:24:38;;;;;;;12.30;7.77;;;;;;;0.43;56.07;94682.25;5026753;28;20180;-72
2022/01/30 04:27:04;;;;;;;7.23;6.47;;;;;;;0.11;56.85;94686.59;5027393;28;20216;-72
2022/01/30 04:29:29;;;;;;;7.73;5.17;;;;;;;0.46;55.54;94677.66;5027529;28;20427;-72
2022/01/30 04:31:55;;;;;;;7.90;7.10;;;;;;;0.46;55.13;94654.50;5027757;28;20168;-72
2022/01/30 04:34:21;;;;;;;13.90;8.73;;;;;;;0.27;55.45;94654.44;5026476;28;20184;-71
2022/01/30 04:37:01;;;;;;;15.80;9.33;;;;;;;0.70;54.94;94655.88;5026635;28;20206;-71
2022/01/30 04:58:11;;;;;;;14.40;9.35;;;;;;;0.85;54.34;94669.97;5026919;28;20179;-72
2022/01/30 05:00:53;;;;;;;11.90;8.68;;;;;;;0.88;54.70;94685.19;5026400;28;20214;-72
2022/01/30 05:08:26;;;;;;;5.95;3.45;;;;;;;0.03;57.16;94696.72;5026748;28;20172;-73
2022/01/30 05:10:53;;;;;;;15.40;9.60;;;;;;;-0.01;56.90;94672.22;4993413;28;20192;-74
2022/01/30 05:13:22;;;;;;;7.35;5.55;;;;;;;-0.16;56.99;94653.72;5027076;28;20191;-71
2022/01/30 05:15:48;;;;;;;13.18;5.45;;;;;;;0.11;56.09;94629.19;5026983;28;20206;-71
2022/01/30 05:18:21;;;;;;;5.50;5.00;;;;;;;0.03;56.59;94606.69;5026828;28;20187;-73
2022/01/30 05:20:47;;;;;;;13.07;9.10;;;;;;;0.11;56.57;94603.47;5027478;28;20173;-73
2022/01/30 05:23:13;;;;;;;12.33;8.90;;;;;;;0.48;56.02;94590.81;5026030;28;20662;-72
2022/01/30 05:25:39;;;;;;;12.35;8.73;;;;;;;0.71;55.39;94588.00;5025636;28;20190;-72
2022/01/30 05:28:08;;;;;;;16.20;9.80;;;;;;;0.88;55.43;94582.16;5025604;28;20220;-71
2022/01/30 05:30:36;;;;;;;8.90;6.65;;;;;;;1.15;53.68;94565.97;5008023;28;20200;-71
2022/01/30 05:33:02;;;;;;;15.27;10.52;;;;;;;0.56;54.32;94570.34;5026844;28;20235;-75
2022/01/30 05:35:27;;;;;;;13.93;9.37;;;;;;;0.67;55.48;94592.59;5021664;28;20214;-71
2022/01/30 05:37:55;;;;;;;11.43;9.07;;;;;;;0.78;55.00;94604.53;5027407;28;20190;-72
2022/01/30 05:40:21;;;;;;;14.38;9.38;;;;;;;1.01;54.84;94604.25;5027425;28;20520;-71
2022/01/30 05:42:47;;;;;;;12.88;9.85;;;;;;;1.18;54.35;94608.72;5045232;28;20221;-71
2022/01/30 05:48:10;;;;;;;10.75;9.27;;;;;;;1.27;54.02;94658.59;5049470;28;20190;-71
2022/01/30 05:50:36;;;;;;;10.32;7.70;;;;;;;1.55;53.39;94656.94;5049496;28;20190;-71
2022/01/30 05:53:02;;;;;;;11.85;8.48;;;;;;;1.53;53.33;94638.22;5049133;28;20179;-71
2022/01/30 05:55:27;;;;;;;12.27;9.00;;;;;;;1.82;52.91;94632.16;5049363;28;20179;-72
2022/01/30 05:57:53;;;;;;;6.37;4.23;;;;;;;1.26;53.04;94624.28;5049379;28;20176;-71
2022/01/30 06:00:18;;;;;;;14.13;7.63;;;;;;;0.63;54.78;94631.63;5037700;28;20195;-71
2022/01/30 06:02:45;;;;;;;2.70;2.50;;;;;;;0.78;55.13;94622.56;5030675;28;20203;-72
2022/01/30 06:05:14;;;;;;;15.73;9.00;;;;;;;0.78;55.09;94632.84;5030601;28;20223;-71
2022/01/30 06:07:48;;;;;;;11.88;8.98;;;;;;;0.26;56.47;94607.28;5029951;28;20176;-72
2022/01/30 06:10:14;;;;;;;4.47;4.13;;;;;;;0.28;56.39;94599.44;5030008;28;20180;-71
2022/01/30 06:12:39;;;;;;;19.10;9.67;;;;;;;0.85;55.19;94595.28;5030625;28;20188;-71
2022/01/30 06:15:06;;;;;;;6.00;4.67;;;;;;;1.28;53.43;94585.50;5029404;28;20183;-72
2022/01/30 06:17:31;;;;;;;13.57;8.32;;;;;;;0.76;55.26;94583.25;5029427;28;20374;-72
2022/01/30 06:19:56;;;;;;;10.43;8.00;;;;;;;0.86;54.94;94573.75;5030124;28;20200;-71
2022/01/30 06:22:22;;;;;;;15.40;9.67;;;;;;;0.55;55.02;94553.31;5030076;28;20203;-71
2022/01/30 06:24:47;;;;;;;16.20;10.20;;;;;;;0.77;55.48;94548.81;5029670;28;20192;-71
2022/01/30 06:27:13;;;;;;;19.83;10.30;;;;;;;1.11;54.34;94545.78;5028581;28;20212;-72
2022/01/30 06:29:38;;;;;;;18.47;10.27;;;;;;;1.27;53.96;94564.06;5028609;28;20559;-71
2022/01/30 06:32:04;;;;;;;13.17;9.90;;;;;;;1.25;53.62;94563.41;5010912;28;20192;-71
2022/01/30 06:34:30;;;;;;;15.55;9.55;;;;;;;0.91;54.69;94565.59;5028524;28;20180;-72
2022/01/30 06:36:55;;;;;;;16.77;10.37;;;;;;;1.13;54.72;94551.63;5010735;28;20196;-71
2022/01/30 06:39:21;;;;;;;16.43;12.10;;;;;;;0.63;55.43;94549.25;5029859;28;20204;-72
2022/01/30 06:41:46;;;;;;;13.87;10.70;;;;;;;1.05;55.16;94561.81;5029036;28;20172;-71
2022/01/30 06:44:12;;;;;;;10.47;9.27;;;;;;;1.38;54.08;94572.59;5028329;28;20255;-71
2022/01/30 06:46:38;;;;;;;18.57;9.40;;;;;;;1.83;52.61;94577.06;5028237;28;20255;-71
2022/01/30 06:49:04;;;;;;;15.55;8.60;;;;;;;1.65;52.68;94595.03;5010509;28;20188;-71
2022/01/30 06:51:29;;;;;;;17.00;10.67;;;;;;;1.44;53.65;94615.84;5028029;28;20192;-71
2022/01/30 06:53:55;;;;;;;13.20;9.03;;;;;;;1.82;53.01;94614.09;5028160;28;20173;-71
2022/01/30 06:56:20;;;;;;;14.50;9.80;;;;;;;1.58;52.74;94597.38;5028596;28;20212;-71
2022/01/30 06:58:45;;;;;;;15.03;7.67;;;;;;;1.85;52.45;94580.28;5027164;28;20184;-72
2022/01/30 07:01:11;;;;;;;15.83;8.50;;;;;;;1.42;52.75;94563.63;5010851;28;20187;-72
2022/01/30 07:03:36;;;;;;;10.17;9.07;;;;;;;1.36;53.46;94567.56;5029935;28;20658;-72
2022/01/30 07:06:02;;;;;;;10.73;8.40;;;;;;;1.69;52.62;94563.66;5029928;28;20168;-72
2022/01/30 07:08:27;;;;;;;15.63;10.00;;;;;;;1.36;53.49;94558.06;5030127;28;20175;-72
2022/01/30 07:10:52;;;;;;;15.10;10.97;;;;;;;1.15;54.99;94562.59;5028558;28;20186;-71
2022/01/30 07:13:18;;;;;;;19.97;10.00;;;;;;;1.50;53.76;94561.97;5027919;28;20184;-71
2022/01/30 07:15:44;;;;;;;7.57;4.10;;;;;;;1.08;54.81;94561.50;5028812;28;20259;-70
2022/01/30 07:18:10;;;;;;;19.27;11.80;;;;;;;1.03;55.25;94566.28;5029238;28;20415;-71
2022/01/30 07:20:35;;;;;;;14.97;8.50;;;;;;;1.42;53.85;94559.25;5028302;28;20187;-72
2022/01/30 07:23:00;;;;;;;17.43;9.90;;;;;;;1.10;54.17;94564.75;5028980;28;20180;-72
2022/01/30 07:25:26;;;;;;;21.87;14.00;;;;;;;1.67;53.45;94567.31;5028517;28;20187;-72
2022/01/30 07:27:51;;;;;;;15.80;11.30;;;;;;;1.90;52.65;94572.94;5027450;28;20208;-71
2022/01/30 07:30:17;;;;;;;13.77;11.77;;;;;;;1.79;52.27;94576.53;5028810;28;20658;-72
2022/01/30 07:32:42;;;;;;;17.37;12.17;;;;;;;1.55;52.98;94585.53;5010084;28;20191;-72
2022/01/30 07:35:08;;;;;;;25.87;14.17;;;;;;;1.75;52.99;94580.34;5027670;28;20184;-71
2022/01/30 07:37:35;;;;;;;25.77;14.70;;;;;;;1.51;53.66;94588.56;5027607;28;20196;-71
2022/01/30 07:40:02;;;;;;;25.63;15.23;;;;;;;1.69;52.74;94592.03;5028421;28;20458;-72
2022/01/30 07:42:28;;;;;;;22.00;13.77;;;;;;;1.94;52.85;94590.56;5027539;28;20208;-72
2022/01/30 07:44:54;;;;;;;21.40;12.40;;;;;;;2.67;51.45;94596.66;5027208;28;20239;-71
2022/01/30 07:47:21;;;;;;;19.15;12.93;;;;;;;2.56;51.14;94591.72;5027101;28;20550;-72
2022/01/30 07:49:51;;;;;;;17.58;12.82;;;;;;;2.79;50.22;94574.84;5027280;28;20184;-71
2022/01/30 07:52:21;;;;;;;12.38;7.97;;;;;;;2.48;50.04;94587.28;5026889;28;20152;-71
2022/01/30 07:54:47;;;;;;;21.25;12.50;;;;;;;2.25;51.30;94581.72;5027218;28;20266;-71
2022/01/30 07:57:12;;;;;;;19.93;14.20;;;;;;;2.34;51.24;94584.25;5027078;28;20196;-74
2022/01/30 07:59:38;;;;;;;14.40;9.30;;;;;;;2.13;51.28;94568.22;5027176;28;20434;-71
2022/01/30 08:02:04;;;;;;;10.30;8.03;;;;;;;1.59;52.66;94549.97;5010928;28;20183;-73
2022/01/30 08:04:29;;;;;;;20.80;11.27;;;;;;;1.65;53.11;94548.59;5029063;28;20184;-71
2022/01/30 08:06:55;;;;;;;19.00;11.50;;;;;;;2.27;51.96;94549.63;5027436;28;20399;-71
2022/01/30 08:09:20;;;;;;;17.33;12.00;;;;;;;2.27;50.73;94534.16;5026535;28;20500;-72
2022/01/30 08:11:46;;;;;;;15.00;10.43;;;;;;;3.02;50.26;94523.50;5026651;28;20934;-71
2022/01/30 08:14:12;;;;;;;18.70;10.90;;;;;;;3.40;48.85;94505.94;5009053;28;20204;-71
2022/01/30 08:16:38;;;;;;;16.20;9.15;;;;;;;3.31;48.67;94525.78;5008736;28;20287;-72
2022/01/30 08:19:04;;;;;;;12.80;9.93;;;;;;;3.62;48.08;94514.94;5026384;28;20189;-71
2022/01/30 08:21:29;;;;;;;15.17;11.70;;;;;;;3.10;49.61;94533.88;5008610;28;20172;-72
2022/01/30 08:23:58;;;;;;;11.40;7.33;;;;;;;3.04;48.12;94534.50;5026170;28;20195;-71
2022/01/30 08:26:23;;;;;;;6.10;5.60;;;;;;;2.19;51.09;94544.41;5008926;28;20223;-72
2022/01/30 08:28:49;;;;;;;15.27;10.70;;;;;;;2.57;51.77;94547.66;5025255;28;20204;-71
2022/01/30 08:31:14;;;;;;;11.80;10.57;;;;;;;3.17;49.47;94547.03;5026377;28;20179;-71
2022/01/30 08:33:40;;;;;;;16.80;8.90;;;;;;;2.25;50.83;94543.00;5009580;28;20188;-72
2022/01/30 08:36:05;;;;;;;21.13;11.93;;;;;;;2.22;51.77;94551.03;5027512;28;20195;-71
2022/01/30 08:38:31;;;;;;;16.30;10.37;;;;;;;2.69;51.38;94549.09;5025242;28;20235;-71
2022/01/30 08:40:56;;;;;;;3.80;3.20;;;;;;;2.42;50.30;94525.91;5007363;28;20230;-72
2022/01/30 08:43:22;;;;;;;21.50;12.47;;;;;;;2.89;50.42;94529.03;5037582;28;20186;-71
2022/01/30 08:45:50;;;;;;;20.10;12.33;;;;;;;3.50;49.30;94521.34;5045722;28;20167;-70
2022/01/30 08:48:16;;;;;;;18.77;11.30;;;;;;;3.11;49.73;94529.50;5045738;28;20174;-70
2022/01/30 08:50:42;;;;;;;15.40;11.47;;;;;;;3.75;48.41;94537.81;5039267;28;20407;-71
2022/01/30 08:53:08;;;;;;;19.42;11.70;;;;;;;3.90;48.47;94540.63;5025506;28;20180;-72
2022/01/30 08:55:33;;;;;;;12.00;7.30;;;;;;;3.63;48.03;94537.25;5025811;28;20271;-71
2022/01/30 08:58:07;;;;;;;13.47;9.37;;;;;;;2.97;49.68;94519.75;5008799;28;20180;-72
2022/01/30 09:00:34;;;;;;;15.20;9.07;;;;;;;2.74;50.20;94530.53;5008694;28;20195;-73
2022/01/30 09:03:00;;;;;;;6.75;6.13;;;;;;;2.82;50.03;94555.63;4994966;28;20204;-73
2022/01/30 09:05:26;;;;;;;16.23;10.73;;;;;;;3.49;48.76;94538.66;5038452;28;20643;-71
2022/01/30 09:07:51;;;;;;;24.40;11.33;;;;;;;3.76;48.55;94551.56;5028894;28;20204;-71
2022/01/30 09:10:16;;;;;;;15.97;9.60;;;;;;;4.11;47.11;94538.41;5016266;28;20188;-71
2022/01/30 09:12:42;;;;;;;22.87;12.03;;;;;;;4.60;46.13;94534.34;5006021;28;20184;-72
2022/01/30 09:15:11;;;;;;;22.60;12.40;;;;;;;5.04;45.41;94541.78;5006255;28;20181;-70
2022/01/30 09:17:37;;;;;;;19.97;12.77;;;;;;;5.36;45.03;94534.97;5005649;28;20192;-70
2022/01/30 09:20:04;;;;;;;24.20;12.07;;;;;;;5.13;44.75;94546.00;5019505;28;20435;-69
2022/01/30 09:22:30;;;;;;;16.47;9.73;;;;;;;4.48;45.61;94544.19;5036031;28;20182;-69
2022/01/30 09:25:32;;;;;;;17.40;12.93;;;;;;;4.71;45.50;94549.56;5026977;28;20423;-70
2022/01/30 09:27:58;;;;;;;10.00;6.83;;;;;;;4.40;45.85;94545.00;5017776;28;20218;-70
2022/01/30 09:30:24;;;;;;;10.27;7.53;;;;;;;3.99;46.42;94526.75;5014460;28;20438;-71
2022/01/30 09:32:50;;;;;;;10.87;6.70;;;;;;;4.61;45.73;94520.38;5026026;28;20168;-70
2022/01/30 09:35:15;;;;;;;8.70;7.83;;;;;;;4.36;45.90;94512.59;5025723;28;20510;-71
2022/01/30 09:37:41;;;;;;;22.40;7.90;;;;;;;4.19;46.73;94495.41;5026438;28;20203;-70
2022/01/30 09:40:08;;;;;;;5.53;3.90;;;;;;;3.91;46.58;94482.72;5026703;28;20203;-70
2022/01/30 09:42:34;;;;;;;14.77;6.73;;;;;;;4.24;45.59;94462.06;5026634;28;20180;-71
2022/01/30 09:45:04;;;;;;;25.63;12.93;;;;;;;5.46;44.35;94460.34;5026522;28;20462;-70
2022/01/30 09:47:30;;;;;;;9.77;5.33;;;;;;;5.50;42.75;94453.03;5027869;28;20474;-70
2022/01/30 09:50:17;;;;;;;16.40;10.50;;;;;;;4.67;44.52;94448.00;5025836;28;20495;-70
2022/01/30 09:52:43;;;;;;;15.17;10.70;;;;;;;5.48;43.85;94435.03;5007732;28;20443;-70
2022/01/30 09:55:08;;;;;;;17.70;10.50;;;;;;;6.02;43.21;94421.34;5020420;28;20447;-71
2022/01/30 09:57:34;;;;;;;17.40;11.70;;;;;;;6.63;42.78;94430.00;5005695;28;20451;-71
2022/01/30 10:00:00;;;;;;;15.80;10.80;;;;;;;7.74;39.30;94416.31;5005565;28;20245;-72
2022/01/30 10:02:26;;;;;;;21.90;12.33;;;;;;;7.41;40.94;94408.91;5005237;28;20432;-72
2022/01/30 10:04:53;;;;;;;19.43;11.77;;;;;;;8.00;40.04;94411.41;5005716;28;20205;-71
2022/01/30 10:07:20;;;;;;;14.83;11.63;;;;;;;8.34;40.31;94396.91;5005575;28;20242;-73
2022/01/30 10:09:49;;;;;;;19.13;12.57;;;;;;;8.23;38.97;94405.22;5017564;28;20431;-72
2022/01/30 10:12:18;;;;;;;19.57;13.13;;;;;;;8.30;39.47;94392.28;5025001;28;20411;-72
2022/01/30 10:14:47;;;;;;;18.90;11.13;;;;;;;7.94;39.43;94391.31;5025140;28;20462;-72
2022/01/30 10:17:26;;;;;;;20.50;14.00;;;;;;;8.28;39.01;94396.88;5025043;28;20455;-72
2022/01/30 10:20:05;;;;;;;17.30;11.30;;;;;;;8.32;38.36;94398.91;5025254;28;20419;-72
2022/01/30 10:22:31;;;;;;;16.17;11.97;;;;;;;8.73;38.46;94408.72;5025451;28;20418;-72
2022/01/30 10:24:57;;;;;;;17.57;11.53;;;;;;;9.07;37.30;94412.41;5025150;28;20522;-72
2022/01/30 10:27:25;;;;;;;22.93;11.83;;;;;;;9.41;37.13;94429.09;5024810;28;20457;-71
2022/01/30 10:29:58;;;;;;;16.40;11.67;;;;;;;10.06;34.83;94418.31;5025276;28;20202;-72
2022/01/30 10:32:26;;;;;;;14.37;10.00;;;;;;;10.33;34.19;94406.91;5025181;28;20407;-71
2022/01/30 10:35:04;;;;;;;14.40;9.90;;;;;;;7.51;38.58;94396.44;5028604;28;20415;-70
2022/01/30 10:37:30;;;;;;;16.00;9.23;;;;;;;7.96;37.91;94383.31;5042165;28;20445;-71
2022/01/30 10:40:17;;;;;;;13.70;11.10;;;;;;;7.96;38.83;94389.31;5048258;28;20859;-72
2022/01/30 10:42:49;;;;;;;16.87;11.43;;;;;;;8.50;37.64;94390.69;5030223;28;20503;-72
2022/01/30 10:45:31;;;;;;;12.40;9.27;;;;;;;8.26;37.37;94378.81;5030347;28;20430;-71
2022/01/30 10:48:17;;;;;;;16.60;9.70;;;;;;;6.74;39.96;94353.38;5047802;28;20496;-71
2022/01/30 10:50:45;;;;;;;18.33;9.90;;;;;;;7.00;39.96;94344.31;5048209;28;20394;-71
2022/01/30 10:53:25;;;;;;;11.93;9.60;;;;;;;7.31;38.95;94336.31;5047971;28;20478;-71
2022/01/30 10:55:52;;;;;;;12.87;8.47;;;;;;;7.38;38.92;94339.81;5047725;28;20499;-71
2022/01/30 10:58:22;;;;;;;15.83;10.97;;;;;;;8.65;37.95;94335.84;5047825;28;20531;-71
2022/01/30 11:00:55;;;;;;;26.53;12.00;;;;;;;9.34;36.01;94339.44;5047688;28;20406;-72
2022/01/30 11:03:50;;;;;;;16.57;11.00;;;;;;;9.20;35.77;94333.38;5008388;28;20818;-72
2022/01/30 11:06:17;;;;;;;25.13;12.83;;;;;;;10.17;35.30;94323.59;5008165;28;20389;-73
2022/01/30 11:08:48;;;;;;;19.30;12.00;;;;;;;11.00;34.00;94338.88;5008062;28;20934;-72
2022/01/30 11:11:32;;;;;;;17.20;11.80;;;;;;;11.69;32.82;94326.19;5007817;28;20403;-72
2022/01/30 11:19:19;;;;;;;15.63;12.23;;;;;;;10.68;33.00;94275.94;5028056;28;20418;-72
2022/01/30 11:21:49;;;;;;;18.80;11.90;;;;;;;11.35;32.86;94267.88;5009826;28;20814;-74
2022/01/30 11:24:16;;;;;;;19.30;11.90;;;;;;;11.68;32.62;94277.41;5009624;28;20428;-72
2022/01/30 11:26:43;;;;;;;13.80;11.10;;;;;;;11.76;32.08;94290.28;5027141;28;20478;-73
2022/01/30 11:29:10;;;;;;;17.23;12.47;;;;;;;12.04;31.51;94281.25;5027472;28;20427;-72
2022/01/30 11:31:36;;;;;;;18.00;12.97;;;;;;;12.63;30.21;94290.47;5027389;28;20435;-73
2022/01/30 11:34:03;;;;;;;18.50;11.70;;;;;;;12.19;30.97;94299.31;5027316;28;20790;-72
2022/01/30 11:36:29;;;;;;;17.47;10.63;;;;;;;11.38;32.09;94290.22;5027165;28;20447;-71
2022/01/30 11:38:54;;;;;;;19.40;12.00;;;;;;;10.48;33.09;94283.81;5027058;28;20449;-72
2022/01/30 11:41:20;;;;;;;18.27;12.50;;;;;;;11.26;32.44;94284.84;5043653;28;20266;-72
2022/01/30 11:44:17;;;;;;;18.60;11.63;;;;;;;11.25;32.73;94273.56;5044992;28;20183;-71
2022/01/30 11:46:43;;;;;;;16.63;11.43;;;;;;;10.83;33.31;94269.66;5032238;28;20435;-71
2022/01/30 11:49:13;;;;;;;19.50;11.23;;;;;;;9.64;35.48;94260.81;5009106;28;20435;-71
2022/01/30 11:51:48;;;;;;;15.70;12.53;;;;;;;10.11;35.62;94264.25;5027054;28;20415;-71
2022/01/30 11:54:42;;;;;;;13.07;9.43;;;;;;;9.91;35.51;94254.59;5026909;28;20429;-71
2022/01/30 11:57:20;;;;;;;8.50;6.70;;;;;;;9.07;36.66;94262.78;5028953;28;20450;-71
2022/01/30 11:59:47;;;;;;;18.57;11.43;;;;;;;8.88;37.73;94251.28;5009199;28;20502;-72
2022/01/30 12:02:27;;;;;;;17.93;11.80;;;;;;;9.35;37.26;94249.66;5024770;28;20446;-71
2022/01/30 12:04:55;;;;;;;12.97;8.93;;;;;;;9.65;35.56;94249.34;5008758;28;20451;-71
2022/01/30 12:07:35;;;;;;;16.30;11.13;;;;;;;9.40;36.62;94257.72;5026234;28;20438;-71
2022/01/30 12:10:27;;;;;;;16.00;11.40;;;;;;;9.11;37.44;94253.59;5025727;28;20469;-72
2022/01/30 12:12:55;;;;;;;17.07;12.20;;;;;;;9.05;37.29;94257.78;5011861;28;20443;-75
2022/01/30 12:15:44;;;;;;;16.37;7.20;;;;;;;8.86;37.04;94250.66;5026993;28;20503;-74
2022/01/30 12:18:14;;;;;;;10.47;6.87;;;;;;;8.20;38.71;94233.59;5026433;28;20411;-75
2022/01/30 12:21:00;;;;;;;17.27;10.60;;;;;;;8.68;38.29;94230.31;5026498;28;20446;-74
2022/01/30 12:23:31;;;;;;;26.20;9.03;;;;;;;8.12;38.84;94231.94;5015064;28;20402;-74
2022/01/30 12:26:04;;;;;;;11.57;10.20;;;;;;;8.37;38.79;94234.13;5032249;28;20411;-75
2022/01/30 12:28:49;;;;;;;18.37;11.83;;;;;;;8.91;37.82;94222.97;5028512;28;20411;-74
2022/01/30 12:31:34;;;;;;;18.00;12.10;;;;;;;8.86;37.93;94211.53;5009112;28;20459;-71
2022/01/30 12:34:11;;;;;;;17.23;11.73;;;;;;;8.86;37.48;94208.91;5018409;28;20446;-71
2022/01/30 12:36:52;;;;;;;19.40;13.20;;;;;;;8.68;38.32;94210.25;5008170;28;20482;-71
2022/01/30 12:39:22;;;;;;;19.33;12.83;;;;;;;8.42;38.53;94208.28;5025418;28;20455;-71